createdAt,value
2022-09-16T00:02:22.542Z,99625.16
2022-09-16T00:04:50.256Z,99624.34
2022-09-16T00:07:20.262Z,99624.34
2022-09-16T00:09:47.965Z,99623.75
2022-09-16T00:12:15.612Z,99627.28
2022-09-16T00:14:43.315Z,99627.97
2022-09-16T00:17:10.967Z,99629.69
2022-09-16T00:19:38.657Z,99620.66
2022-09-16T00:22:06.430Z,99604.81
2022-09-16T00:24:35.550Z,99625.41
2022-09-16T00:27:03.217Z,99622.75
2022-09-16T00:29:30.911Z,99627.81
2022-09-16T00:31:58.568Z,99617.53
2022-09-16T00:34:26.249Z,99617.53
2022-09-16T00:36:53.924Z,99614.59
2022-09-16T00:39:21.619Z,99619.81
2022-09-16T00:41:50.624Z,99611.94
2022-09-16T00:44:52.982Z,99606.44
2022-09-16T00:47:23.106Z,99554.63
2022-09-16T00:49:50.581Z,99613.19
2022-09-16T00:52:18.244Z,99617.78
2022-09-16T00:54:45.931Z,99611.38
2022-09-16T00:57:14.923Z,99605.69
2022-09-16T00:59:43.148Z,99570.00
2022-09-16T01:02:12.365Z,99607.97
2022-09-16T01:04:43.156Z,99595.13
2022-09-16T01:07:10.842Z,99604.44
2022-09-16T01:09:38.708Z,99558.84
2022-09-16T01:12:06.792Z,99611.75
2022-09-16T01:14:54.337Z,99596.13
2022-09-16T01:17:28.110Z,99545.03
2022-09-16T01:20:11.099Z,99581.28
2022-09-16T01:22:47.220Z,99548.47
2022-09-16T01:25:21.593Z,99604.97
2022-09-16T01:27:59.338Z,99605.69
2022-09-16T01:30:54.258Z,99611.75
2022-09-16T01:33:28.244Z,99565.28
2022-09-16T01:36:12.217Z,99566.38
2022-09-16T01:38:51.500Z,99618.31
2022-09-16T01:41:22.559Z,99622.84
2022-09-16T01:43:54.727Z,99567.72
2022-09-16T01:46:25.678Z,99567.03
2022-09-16T01:48:55.611Z,99542.06
2022-09-16T01:51:25.269Z,99612.28
2022-09-16T01:53:54.407Z,99616.75
2022-09-16T01:56:23.928Z,99606.47
2022-09-16T01:58:54.467Z,99582.41
2022-09-16T02:01:25.654Z,99618.16
2022-09-16T02:04:01.331Z,99618.00
2022-09-16T02:06:29.252Z,99616.16
2022-09-16T02:08:58.850Z,99589.66
2022-09-16T02:11:26.554Z,99617.03
2022-09-16T02:13:55.563Z,99607.31
2022-09-16T02:16:27.130Z,99472.66
2022-09-16T02:18:56.131Z,99602.00
2022-09-16T02:21:24.800Z,99596.91
2022-09-16T02:23:53.409Z,99591.56
2022-09-16T02:26:22.205Z,99586.34
2022-09-16T02:28:50.983Z,99585.38
2022-09-16T02:31:20.221Z,99587.56
2022-09-16T02:33:51.087Z,99590.69
2022-09-16T02:36:21.152Z,99589.16
2022-09-16T02:38:49.158Z,99593.91
2022-09-16T02:41:16.826Z,99597.44
2022-09-16T02:43:44.692Z,99588.56
2022-09-16T02:46:15.859Z,99552.75
2022-09-16T02:48:54.796Z,99590.22
2022-09-16T02:51:27.487Z,99556.88
2022-09-16T02:53:56.528Z,99603.59
2022-09-16T02:56:26.090Z,99607.25
2022-09-16T02:58:53.816Z,99608.09
2022-09-16T03:01:21.802Z,99578.78
2022-09-16T03:03:51.110Z,99611.88
2022-09-16T03:06:20.987Z,99563.69
2022-09-16T03:08:48.689Z,99617.47
2022-09-16T03:11:35.001Z,99609.44
2022-09-16T03:14:10.590Z,99617.47
2022-09-16T03:16:46.044Z,99614.66
2022-09-16T03:19:16.801Z,99610.44
2022-09-16T03:21:48.328Z,99613.09
2022-09-16T03:24:19.250Z,99602.56
2022-09-16T03:26:47.984Z,99600.88
2022-09-16T03:29:19.759Z,99595.66
2022-09-16T03:31:49.132Z,99532.09
2022-09-16T03:34:20.203Z,99536.06
2022-09-16T03:36:50.964Z,99592.22
2022-09-16T03:39:18.667Z,99596.47
2022-09-16T03:41:46.338Z,99594.69
2022-09-16T03:44:14.082Z,99587.75
2022-09-16T03:46:41.830Z,99590.31
2022-09-16T03:49:09.526Z,99590.19
2022-09-16T03:51:38.521Z,99587.66
2022-09-16T03:54:06.551Z,99593.00
2022-09-16T03:56:34.240Z,99585.19
2022-09-16T03:59:01.950Z,99583.34
2022-09-16T04:01:29.676Z,99580.00
2022-09-16T04:03:57.610Z,99579.00
2022-09-16T04:06:25.288Z,99568.72
2022-09-16T04:08:54.381Z,99574.53
2022-09-16T04:11:22.082Z,99576.22
2022-09-16T04:13:49.799Z,99577.31
2022-09-16T04:16:20.271Z,99578.16
2022-09-16T04:18:48.028Z,99573.78
2022-09-16T04:21:15.805Z,99573.78
2022-09-16T04:23:43.542Z,99573.78
2022-09-16T04:26:12.667Z,99576.47
2022-09-16T04:28:40.387Z,99571.25
2022-09-16T04:31:10.936Z,99485.28
2022-09-16T04:33:38.892Z,99575.88
2022-09-16T04:36:08.520Z,99578.41
2022-09-16T04:38:36.232Z,99576.00
2022-09-16T04:41:04.196Z,99570.78
2022-09-16T04:43:33.247Z,99573.59
2022-09-16T04:46:01.208Z,99563.63
2022-09-16T04:48:29.081Z,99544.06
2022-09-16T04:51:02.047Z,99571.66
2022-09-16T04:53:29.773Z,99574.19
2022-09-16T04:56:04.262Z,99560.19
2022-09-16T04:58:33.316Z,99554.19
2022-09-16T05:01:06.006Z,99563.88
2022-09-16T05:03:33.850Z,99567.28
2022-09-16T05:06:06.508Z,99570.78
2022-09-16T05:08:35.350Z,99513.47
2022-09-16T05:11:07.437Z,99575.31
2022-09-16T05:13:36.559Z,99571.03
2022-09-16T05:16:05.634Z,99575.56
2022-09-16T05:18:33.337Z,99579.19
2022-09-16T05:21:01.226Z,99572.88
2022-09-16T05:23:28.943Z,99509.50
2022-09-16T05:25:56.645Z,99568.75
2022-09-16T05:28:24.381Z,99573.53
2022-09-16T05:30:53.460Z,99574.09
2022-09-16T05:33:21.184Z,99567.94
2022-09-16T05:35:48.894Z,99571.56
2022-09-16T05:38:16.795Z,99570.59
2022-09-16T05:40:44.484Z,99566.34
2022-09-16T05:43:12.203Z,99573.66
2022-09-16T05:45:40.033Z,99576.47
2022-09-16T05:48:09.132Z,99588.69
2022-09-16T05:50:36.775Z,99578.25
2022-09-16T05:53:04.632Z,99584.34
2022-09-16T05:55:32.335Z,99581.53
2022-09-16T05:57:59.995Z,99590.63
2022-09-16T06:00:27.674Z,99587.97
2022-09-16T06:02:55.424Z,99596.94
2022-09-16T06:05:24.610Z,99592.47
2022-09-16T06:07:52.285Z,99588.94
2022-09-16T06:10:19.977Z,99596.22
2022-09-16T06:12:47.654Z,99585.41
2022-09-16T06:15:15.407Z,99584.59
2022-09-16T06:17:43.083Z,99587.97
2022-09-16T06:20:14.690Z,99580.06
2022-09-16T06:22:43.730Z,99564.00
2022-09-16T06:25:11.937Z,99578.53
2022-09-16T06:27:39.607Z,99575.72
2022-09-16T06:30:07.999Z,99583.59
2022-09-16T06:32:35.686Z,99580.94
2022-09-16T06:35:03.394Z,99583.13
2022-09-16T06:37:31.073Z,99588.59
2022-09-16T06:40:00.193Z,99583.25
2022-09-16T06:42:28.455Z,99586.78
2022-09-16T06:44:56.376Z,99587.38
2022-09-16T06:47:24.117Z,99586.16
2022-09-16T06:49:51.981Z,99587.00
2022-09-16T06:52:20.043Z,99582.38
2022-09-16T06:54:48.375Z,99577.75
2022-09-16T06:57:18.226Z,99590.13
2022-09-16T06:59:45.919Z,99583.09
2022-09-16T07:02:13.642Z,99584.78
2022-09-16T07:04:41.428Z,99578.47
2022-09-16T07:07:10.279Z,99517.03
2022-09-16T07:09:38.437Z,99586.38
2022-09-16T07:12:06.243Z,99576.63
2022-09-16T07:14:35.497Z,99582.84
2022-09-16T07:17:03.291Z,99582.84
2022-09-16T07:19:31.121Z,99580.28
2022-09-16T07:21:58.780Z,99576.38
2022-09-16T07:24:26.530Z,99582.09
2022-09-16T07:26:54.239Z,99589.28
2022-09-16T07:29:22.106Z,99585.03
2022-09-16T07:31:51.169Z,99595.44
2022-09-16T07:34:18.942Z,99516.28
2022-09-16T07:36:47.881Z,99596.19
2022-09-16T07:39:16.613Z,99557.84
2022-09-16T07:41:45.192Z,99563.19
2022-09-16T07:44:14.180Z,99516.34
2022-09-16T07:46:41.888Z,99598.25
2022-09-16T07:49:12.722Z,99519.28
2022-09-16T07:51:40.374Z,99601.78
2022-09-16T07:54:09.138Z,99605.56
2022-09-16T07:56:38.672Z,99575.06
2022-09-16T07:59:07.694Z,99513.47
2022-09-16T08:01:38.863Z,99609.53
2022-09-16T08:04:10.454Z,99601.66
2022-09-16T08:06:39.085Z,99613.19
2022-09-16T08:09:15.616Z,99616.56
2022-09-16T08:11:54.520Z,99621.91
2022-09-16T08:14:22.246Z,99617.41
2022-09-16T08:16:51.456Z,99619.84
2022-09-16T08:19:22.557Z,99616.91
2022-09-16T08:21:50.343Z,99620.31
2022-09-16T08:24:18.040Z,99619.19
2022-09-16T08:26:45.768Z,99620.19
2022-09-16T08:29:13.767Z,99613.00
2022-09-16T08:31:41.982Z,99612.16
2022-09-16T08:34:09.766Z,99621.72
2022-09-16T08:36:38.774Z,99620.88
2022-09-16T08:39:06.690Z,99620.03
2022-09-16T08:41:42.669Z,99622.59
2022-09-16T08:44:17.889Z,99616.16
2022-09-16T08:46:48.761Z,99609.38
2022-09-16T08:49:19.236Z,99619.44
2022-09-16T08:51:48.285Z,99625.47
2022-09-16T08:54:19.594Z,99631.53
2022-09-16T08:56:49.571Z,99620.00
2022-09-16T08:59:20.595Z,99591.31
2022-09-16T09:01:51.693Z,99628.81
2022-09-16T09:04:19.680Z,99630.25
2022-09-16T09:06:55.295Z,99619.03
2022-09-16T09:09:38.522Z,99582.88
2022-09-16T09:12:09.485Z,99618.25
2022-09-16T09:14:44.086Z,99619.56
2022-09-16T09:17:18.168Z,99605.09
2022-09-16T09:19:53.784Z,99612.59
2022-09-16T09:22:27.670Z,99609.53
2022-09-16T09:25:02.943Z,99568.34
2022-09-16T09:27:33.040Z,99606.88
2022-09-16T09:30:05.215Z,99607.59
2022-09-16T09:32:48.924Z,99611.69
2022-09-16T09:35:23.741Z,99551.78
2022-09-16T09:38:07.652Z,99602.88
2022-09-16T09:40:38.448Z,99612.59
2022-09-16T09:43:15.879Z,99607.25
2022-09-16T09:45:46.165Z,99602.88
2022-09-16T09:48:19.157Z,99594.09
2022-09-16T09:50:47.668Z,99602.19
2022-09-16T09:53:20.184Z,99539.38
2022-09-16T09:55:47.891Z,99604.25
2022-09-16T09:58:24.296Z,99592.72
2022-09-16T10:00:53.264Z,99579.19
2022-09-16T10:03:20.989Z,99585.16
2022-09-16T10:05:48.904Z,99579.53
2022-09-16T10:08:25.504Z,99574.81
2022-09-16T10:10:53.959Z,99563.97
2022-09-16T10:13:22.726Z,99500.16
2022-09-16T10:15:53.424Z,99501.16
2022-09-16T10:18:26.196Z,99576.34
2022-09-16T10:21:00.383Z,99487.59
2022-09-16T10:23:30.468Z,99579.03
2022-09-16T10:26:05.763Z,99572.53
2022-09-16T10:28:33.443Z,99563.56
2022-09-16T10:31:01.259Z,99550.84
2022-09-16T10:33:30.159Z,99492.19
2022-09-16T10:36:00.712Z,99486.00
2022-09-16T10:38:38.549Z,99564.13
2022-09-16T10:41:09.385Z,99564.25
2022-09-16T10:43:38.441Z,99542.09
2022-09-16T10:46:06.483Z,99569.47
2022-09-16T10:48:34.624Z,99561.16
2022-09-16T10:51:03.533Z,99559.34
2022-09-16T10:53:37.716Z,99544.84
2022-09-16T10:56:08.050Z,99551.19
2022-09-16T10:58:35.712Z,99549.22
2022-09-16T11:01:21.307Z,99552.59
2022-09-16T11:04:05.497Z,99557.53
2022-09-16T11:06:40.626Z,99555.84
2022-09-16T11:09:14.736Z,99557.41
2022-09-16T11:11:50.754Z,99544.44
2022-09-16T11:14:23.718Z,99545.00
2022-09-16T11:17:22.028Z,99543.88
2022-09-16T11:19:57.400Z,99539.38
2022-09-16T11:22:28.814Z,99444.63
2022-09-16T11:25:17.756Z,99529.69
2022-09-16T11:27:47.141Z,99506.28
2022-09-16T11:30:15.492Z,99527.41
2022-09-16T11:33:01.851Z,99445.66
2022-09-16T11:35:43.346Z,99510.53
2022-09-16T11:38:16.415Z,99522.50
2022-09-16T11:40:48.828Z,99522.22
2022-09-16T11:43:30.030Z,99441.75
2022-09-16T11:45:59.557Z,99523.91
2022-09-16T11:48:39.150Z,99474.88
2022-09-16T11:51:10.971Z,99514.19
2022-09-16T11:54:06.907Z,99524.78
2022-09-16T11:56:38.535Z,99519.41
2022-09-16T11:59:11.559Z,99528.44
2022-09-16T12:01:42.661Z,99496.88
2022-09-16T12:04:13.625Z,99513.22
2022-09-16T12:06:44.095Z,99463.19
2022-09-16T12:09:13.525Z,99506.72
2022-09-16T12:11:45.852Z,99501.22
2022-09-16T12:14:15.759Z,99478.56
2022-09-16T12:16:46.498Z,99502.22
2022-09-16T12:19:17.987Z,99455.47
2022-09-16T12:21:48.723Z,99483.63
2022-09-16T12:24:19.862Z,99409.22
2022-09-16T12:26:50.980Z,99513.22
2022-09-16T12:29:20.577Z,99450.31
2022-09-16T12:31:50.207Z,99484.31
2022-09-16T12:34:19.353Z,99509.28
2022-09-16T12:36:48.856Z,99509.28
2022-09-16T12:39:16.738Z,99516.56
2022-09-16T12:42:12.470Z,99419.75
2022-09-16T12:44:54.023Z,99512.34
2022-09-16T12:47:46.430Z,99516.03
2022-09-16T12:50:21.641Z,99521.94
2022-09-16T12:53:03.220Z,99544.75
2022-09-16T12:55:44.681Z,99536.84
2022-09-16T12:58:38.596Z,99540.66
2022-09-16T13:01:16.806Z,99547.97
2022-09-16T13:03:46.234Z,99539.94
2022-09-16T13:06:25.327Z,99538.94
2022-09-16T13:08:53.107Z,99535.31
2022-09-16T13:14:21.211Z,99530.22
2022-09-16T13:16:54.143Z,99546.41
2022-09-16T13:19:44.476Z,99543.47
2022-09-16T13:22:20.415Z,99510.75
2022-09-16T13:24:49.499Z,99521.22
2022-09-16T13:27:28.973Z,99536.75
2022-09-16T13:32:39.186Z,99511.94
2022-09-16T13:35:22.033Z,99444.97
2022-09-16T13:37:50.616Z,99486.16
2022-09-16T13:40:19.740Z,99510.69
2022-09-16T13:42:47.482Z,99523.22
2022-09-16T13:45:35.538Z,99494.63
2022-09-16T13:48:07.445Z,99510.09
2022-09-16T13:50:35.622Z,99506.63
2022-09-16T13:53:10.386Z,99512.81
2022-09-16T13:55:38.072Z,99508.16
2022-09-16T13:58:06.878Z,99512.38
2022-09-16T14:00:37.679Z,99503.94
2022-09-16T14:03:38.400Z,99494.78
2022-09-16T14:06:31.275Z,99495.50
2022-09-16T14:09:00.186Z,99504.91
2022-09-16T14:11:32.288Z,99491.66
2022-09-16T14:14:05.722Z,99478.28
2022-09-16T14:16:35.240Z,99479.28
2022-09-16T14:19:05.832Z,99478.41
2022-09-16T14:21:33.548Z,99472.34
2022-09-16T14:24:09.356Z,99453.22
2022-09-16T14:26:37.079Z,99417.00
2022-09-16T14:29:05.428Z,99394.03
2022-09-16T14:31:33.741Z,99396.28
2022-09-16T14:34:04.568Z,99464.72
2022-09-16T14:36:35.026Z,99455.84
2022-09-16T14:39:04.794Z,99383.59
2022-09-16T14:41:34.032Z,99456.25
2022-09-16T14:44:10.952Z,99448.22
2022-09-16T14:46:43.491Z,99453.81
2022-09-16T14:49:11.722Z,99459.03
2022-09-16T14:51:40.834Z,99452.72
2022-09-16T14:54:17.227Z,99363.59
2022-09-16T14:56:56.300Z,99450.25
2022-09-16T14:59:25.136Z,99443.66
2022-09-16T15:01:52.896Z,99449.28
2022-09-16T15:04:24.036Z,99454.81
2022-09-16T15:06:55.802Z,99465.66
2022-09-16T15:09:27.499Z,99455.09
2022-09-16T15:11:56.446Z,99456.91
2022-09-16T15:14:24.127Z,99458.22
2022-09-16T15:16:53.403Z,99465.09
2022-09-16T15:19:22.296Z,99462.72
2022-09-16T15:21:50.059Z,99462.88
2022-09-16T15:24:20.892Z,99441.38
2022-09-16T15:26:48.626Z,99477.69
2022-09-16T15:29:28.579Z,99409.81
2022-09-16T15:31:56.336Z,99501.09
2022-09-16T15:34:24.821Z,99494.47
2022-09-16T15:36:53.123Z,99407.56
2022-09-16T15:39:26.170Z,99496.75
2022-09-16T15:42:06.076Z,99430.41
2022-09-16T15:44:37.443Z,99488.03
2022-09-16T15:47:05.626Z,99383.13
2022-09-16T15:49:34.714Z,99490.00
2022-09-16T15:52:06.989Z,99493.81
2022-09-16T15:54:37.571Z,99508.03
2022-09-16T15:57:06.864Z,99507.34
2022-09-16T15:59:36.848Z,99498.28
2022-09-16T16:02:07.574Z,99506.47
2022-09-16T16:04:35.401Z,99501.28
2022-09-16T16:07:03.728Z,99496.03
2022-09-16T16:09:37.871Z,99496.03
2022-09-16T16:12:07.634Z,99487.28
2022-09-16T16:14:35.621Z,99476.03
2022-09-16T16:17:14.116Z,99482.78
2022-09-16T16:19:42.646Z,99474.75
2022-09-16T16:22:10.371Z,99476.72
2022-09-16T16:24:39.425Z,99470.53
2022-09-16T16:27:08.455Z,99458.25
2022-09-16T16:29:36.156Z,99468.69
2022-09-16T16:32:06.156Z,99470.53
2022-09-16T16:34:34.308Z,99474.03
2022-09-16T16:37:02.075Z,99465.19
2022-09-16T16:39:30.290Z,99467.00
2022-09-16T16:41:59.341Z,99405.03
2022-09-16T16:44:27.215Z,99464.47
2022-09-16T16:46:56.388Z,99453.75
2022-09-16T16:49:24.299Z,99456.44
2022-09-16T16:51:52.220Z,99451.22
2022-09-16T16:54:20.110Z,99462.94
2022-09-16T16:56:47.818Z,99456.88
2022-09-16T16:59:16.950Z,99458.53
2022-09-16T17:01:48.623Z,99395.63
2022-09-16T17:04:17.009Z,99443.75
2022-09-16T17:06:44.911Z,99455.47
2022-09-16T17:09:15.958Z,99414.63
2022-09-16T17:11:51.584Z,99471.38
2022-09-16T17:14:20.924Z,99463.66
2022-09-16T17:16:48.815Z,99456.56
2022-09-16T17:19:16.915Z,99460.13
2022-09-16T17:21:44.932Z,99469.00
2022-09-16T17:24:12.644Z,99467.44
2022-09-16T17:26:40.337Z,99469.28
2022-09-16T17:29:15.476Z,99465.88
2022-09-16T17:31:45.042Z,99475.75
2022-09-16T17:34:13.583Z,99476.03
2022-09-16T17:36:44.204Z,99486.88
2022-09-16T17:39:14.952Z,99491.69
2022-09-16T17:41:44.076Z,99498.00
2022-09-16T17:44:12.366Z,99507.03
2022-09-16T17:46:40.185Z,99513.50
2022-09-16T17:49:11.659Z,99503.63
2022-09-16T17:51:39.356Z,99493.50
2022-09-16T17:54:08.741Z,99503.91
2022-09-16T17:56:36.602Z,99457.84
2022-09-16T17:59:04.430Z,99503.38
2022-09-16T18:01:32.132Z,99501.38
2022-09-16T18:03:59.979Z,99503.63
2022-09-16T18:06:30.848Z,99368.63
2022-09-16T18:09:00.575Z,99484.91
2022-09-16T18:11:28.346Z,99505.31
2022-09-16T18:13:57.158Z,99472.50
2022-09-16T18:16:25.128Z,99475.44
2022-09-16T18:18:54.195Z,99498.13
2022-09-16T18:21:23.154Z,99513.47
2022-09-16T18:23:54.354Z,99505.72
2022-09-16T18:26:22.166Z,99513.75
2022-09-16T18:31:38.020Z,99519.09
2022-09-16T18:34:05.872Z,99516.81
2022-09-16T18:36:35.188Z,99524.72
2022-09-16T18:39:04.713Z,99530.19
2022-09-16T18:41:33.764Z,99496.47
2022-09-16T18:44:02.607Z,99459.97
2022-09-16T18:46:31.292Z,99520.50
2022-09-16T18:48:59.213Z,99521.19
2022-09-16T18:51:28.667Z,99524.00
2022-09-16T18:53:57.836Z,99530.59
2022-09-16T18:56:27.444Z,99521.88
2022-09-16T18:59:19.802Z,99522.13
2022-09-16T19:01:43.775Z,99518.88
2022-09-16T19:04:12.132Z,99522.38
2022-09-16T19:06:42.004Z,99524.09
2022-09-16T19:09:11.651Z,99528.59
2022-09-16T19:11:40.851Z,99519.97
2022-09-16T19:14:09.377Z,99522.66
2022-09-16T19:16:37.249Z,99458.66
2022-09-16T19:19:05.591Z,99531.09
2022-09-16T19:21:33.287Z,99528.53
2022-09-16T19:24:02.284Z,99548.25
2022-09-16T19:26:31.383Z,99538.81
2022-09-16T19:29:01.287Z,99532.47
2022-09-16T19:31:29.286Z,99534.69
2022-09-16T19:33:57.017Z,99524.72
2022-09-16T19:36:25.849Z,99519.91
2022-09-16T19:38:53.590Z,99530.94
2022-09-16T19:41:22.507Z,99528.25
2022-09-16T19:43:54.270Z,99476.50
2022-09-16T19:46:23.949Z,99526.53
2022-09-16T19:48:52.153Z,99527.66
2022-09-16T19:51:22.603Z,99484.75
2022-09-16T19:53:50.506Z,99509.78
2022-09-16T19:56:21.262Z,99528.41
2022-09-16T19:58:49.292Z,99521.19
2022-09-16T20:01:18.599Z,99522.31
2022-09-16T20:03:49.288Z,99534.97
2022-09-16T20:06:17.844Z,99538.63
2022-09-16T20:08:46.316Z,99543.97
2022-09-16T20:11:16.550Z,99543.00
2022-09-16T20:13:48.496Z,99541.31
2022-09-16T20:16:16.422Z,99527.06
2022-09-16T20:18:44.116Z,99544.25
2022-09-16T20:21:14.658Z,99550.72
2022-09-16T20:23:42.570Z,99548.88
2022-09-16T20:26:12.022Z,99548.88
2022-09-16T20:28:42.035Z,99546.34
2022-09-16T20:31:09.917Z,99548.44
2022-09-16T20:33:37.712Z,99547.47
2022-09-16T20:36:05.972Z,99549.28
2022-09-16T20:38:36.499Z,99529.22
2022-09-16T20:41:05.949Z,99550.25
2022-09-16T20:43:33.630Z,99554.19
2022-09-16T20:46:05.152Z,99561.09
2022-09-16T20:48:32.927Z,99552.06
2022-09-16T20:51:04.335Z,99552.47
2022-09-16T20:53:31.993Z,99547.28
2022-09-16T20:56:04.700Z,99546.31
2022-09-16T20:58:32.396Z,99543.03
2022-09-16T21:01:04.878Z,99544.59
2022-09-16T21:03:32.640Z,99549.25
2022-09-16T21:06:04.299Z,99479.31
2022-09-16T21:08:34.120Z,99529.09
2022-09-16T21:11:06.526Z,99538.69
2022-09-16T21:13:34.252Z,99532.34
2022-09-16T21:16:02.244Z,99543.19
2022-09-16T21:18:30.531Z,99550.59
2022-09-16T21:21:02.529Z,99552.19
2022-09-16T21:23:30.357Z,99546.97
2022-09-16T21:26:02.982Z,99555.81
2022-09-16T21:28:34.102Z,99528.34
2022-09-16T21:31:02.659Z,99546.13
2022-09-16T21:33:30.970Z,99540.91
2022-09-16T21:35:58.644Z,99539.22
2022-09-16T21:38:26.396Z,99541.03
2022-09-16T21:40:57.907Z,99540.19
2022-09-16T21:43:27.426Z,99545.53
2022-09-16T21:45:56.574Z,99542.84
2022-09-16T21:48:25.232Z,99538.63
2022-09-16T21:50:53.590Z,99544.09
2022-09-16T21:53:21.612Z,99538.63
2022-09-16T21:55:49.280Z,99541.56
2022-09-16T21:58:16.964Z,99551.41
2022-09-16T22:00:44.662Z,99550.56
2022-09-16T22:03:13.759Z,99562.22
2022-09-16T22:05:41.444Z,99558.72
2022-09-16T22:08:09.171Z,99564.06
2022-09-16T22:10:37.633Z,99574.75
2022-09-16T22:13:05.465Z,99584.44
2022-09-16T22:15:33.144Z,99568.81
2022-09-16T22:18:02.333Z,99570.50
2022-09-16T22:20:31.400Z,99569.81
2022-09-16T22:22:59.109Z,99584.84
2022-09-16T22:25:27.081Z,99575.13
2022-09-16T22:27:54.779Z,99569.81
2022-09-16T22:30:22.458Z,99583.41
2022-09-16T22:32:50.165Z,99580.75
2022-09-16T22:35:17.983Z,99581.56
2022-09-16T22:37:49.546Z,99579.03
2022-09-16T22:40:17.331Z,99581.69
2022-09-16T22:42:45.089Z,99572.00
2022-09-16T22:45:12.766Z,99574.09
2022-09-16T22:47:40.454Z,99579.28
2022-09-16T22:50:08.986Z,99567.91
2022-09-16T22:52:36.680Z,99577.88
2022-09-16T22:55:08.087Z,99577.59
2022-09-16T22:57:35.810Z,99577.75
2022-09-16T23:00:03.614Z,99578.84
2022-09-16T23:02:31.303Z,99568.56
2022-09-16T23:04:58.983Z,99574.47
2022-09-16T23:07:26.712Z,99583.34
2022-09-16T23:09:54.564Z,99579.00
2022-09-16T23:12:23.616Z,99577.13
2022-09-16T23:14:51.303Z,99573.78
2022-09-16T23:17:18.993Z,99574.59
2022-09-16T23:19:46.671Z,99581.78
2022-09-16T23:22:14.384Z,99577.41
2022-09-16T23:24:42.054Z,99577.41
2022-09-16T23:27:09.756Z,99574.16
2022-09-16T23:29:38.752Z,99577.66
2022-09-16T23:32:06.701Z,99580.34
2022-09-16T23:34:34.380Z,99583.00
2022-09-16T23:37:02.086Z,99576.97
2022-09-16T23:39:29.756Z,99578.88
2022-09-16T23:41:57.459Z,99588.00
2022-09-16T23:44:25.721Z,99580.00
2022-09-16T23:46:54.820Z,99582.53
2022-09-16T23:49:22.808Z,99560.31
2022-09-16T23:51:50.510Z,99581.22
2022-09-16T23:54:18.148Z,99590.69
2022-09-16T23:56:45.916Z,99596.13
2022-09-16T23:59:13.603Z,99593.47
